sensor_id;sensor_type;location;lat;lon;timestamp;temperature;humidity
38090;DHT22;23904;52.322;10.232;2022-12-07T00:01:24;3.50;99.90
38090;DHT22;23904;52.322;10.232;2022-12-07T00:03:59;3.50;99.90
38090;DHT22;23904;52.322;10.232;2022-12-07T00:06:38;3.50;99.90
38090;DHT22;23904;52.322;10.232;2022-12-07T00:09:06;3.50;99.90
38090;DHT22;23904;52.322;10.232;2022-12-07T00:11:33;3.60;99.90
38090;DHT22;23904;52.322;10.232;2022-12-07T00:14:01;3.60;99.90
38090;DHT22;23904;52.322;10.232;2022-12-07T00:16:30;3.60;99.90
38090;DHT22;23904;52.322;10.232;2022-12-07T00:18:57;3.50;99.90
38090;DHT22;23904;52.322;10.232;2022-12-07T00:21:28;3.60;99.90
38090;DHT22;23904;52.322;10.232;2022-12-07T00:23:56;3.70;99.90
38090;DHT22;23904;52.322;10.232;2022-12-07T00:26:24;3.60;99.90
38090;DHT22;23904;52.322;10.232;2022-12-07T00:28:56;3.70;99.90
38090;DHT22;23904;52.322;10.232;2022-12-07T00:31:25;3.70;99.90
38090;DHT22;23904;52.322;10.232;2022-12-07T00:33:52;3.70;99.90
38090;DHT22;23904;52.322;10.232;2022-12-07T00:36:20;3.70;99.90
38090;DHT22;23904;52.322;10.232;2022-12-07T00:38:47;3.70;99.90
38090;DHT22;23904;52.322;10.232;2022-12-07T00:41:15;3.80;99.90
38090;DHT22;23904;52.322;10.232;2022-12-07T00:43:43;3.70;99.90
38090;DHT22;23904;52.322;10.232;2022-12-07T00:46:10;3.70;99.90
38090;DHT22;23904;52.322;10.232;2022-12-07T00:48:36;3.80;99.90
38090;DHT22;23904;52.322;10.232;2022-12-07T00:51:03;3.80;99.90
38090;DHT22;23904;52.322;10.232;2022-12-07T00:53:29;3.80;99.90
38090;DHT22;23904;52.322;10.232;2022-12-07T00:55:55;3.80;99.90
38090;DHT22;23904;52.322;10.232;2022-12-07T00:58:22;3.90;99.90
38090;DHT22;23904;52.322;10.232;2022-12-07T01:00:48;3.80;99.90
38090;DHT22;23904;52.322;10.232;2022-12-07T01:03:15;3.90;99.90
38090;DHT22;23904;52.322;10.232;2022-12-07T01:05:50;3.90;99.90
38090;DHT22;23904;52.322;10.232;2022-12-07T01:08:19;3.80;99.90
38090;DHT22;23904;52.322;10.232;2022-12-07T01:10:45;3.90;99.90
38090;DHT22;23904;52.322;10.232;2022-12-07T01:13:11;3.90;99.90
38090;DHT22;23904;52.322;10.232;2022-12-07T01:15:41;3.90;99.90
38090;DHT22;23904;52.322;10.232;2022-12-07T01:18:08;3.90;99.90
38090;DHT22;23904;52.322;10.232;2022-12-07T01:20:34;3.90;99.90
38090;DHT22;23904;52.322;10.232;2022-12-07T01:23:00;3.90;99.90
38090;DHT22;23904;52.322;10.232;2022-12-07T01:25:26;3.90;99.90
38090;DHT22;23904;52.322;10.232;2022-12-07T01:27:52;3.90;99.90
38090;DHT22;23904;52.322;10.232;2022-12-07T01:30:17;3.90;99.90
38090;DHT22;23904;52.322;10.232;2022-12-07T01:32:43;3.90;99.90
38090;DHT22;23904;52.322;10.232;2022-12-07T01:35:09;3.90;99.90
38090;DHT22;23904;52.322;10.232;2022-12-07T01:37:36;3.90;99.90
38090;DHT22;23904;52.322;10.232;2022-12-07T01:40:07;3.90;99.90
38090;DHT22;23904;52.322;10.232;2022-12-07T01:42:34;3.90;99.90
38090;DHT22;23904;52.322;10.232;2022-12-07T01:47:45;3.90;99.90
38090;DHT22;23904;52.322;10.232;2022-12-07T01:50:13;3.90;99.90
38090;DHT22;23904;52.322;10.232;2022-12-07T01:52:39;3.90;99.90
38090;DHT22;23904;52.322;10.232;2022-12-07T01:55:09;3.90;99.90
38090;DHT22;23904;52.322;10.232;2022-12-07T01:57:40;3.90;99.90
38090;DHT22;23904;52.322;10.232;2022-12-07T02:00:08;3.90;99.90
38090;DHT22;23904;52.322;10.232;2022-12-07T02:05:19;3.90;99.90
38090;DHT22;23904;52.322;10.232;2022-12-07T02:07:46;4.00;99.90
38090;DHT22;23904;52.322;10.232;2022-12-07T02:10:21;3.90;99.90
38090;DHT22;23904;52.322;10.232;2022-12-07T02:12:58;3.90;99.90
38090;DHT22;23904;52.322;10.232;2022-12-07T02:15:51;3.90;99.90
38090;DHT22;23904;52.322;10.232;2022-12-07T02:21:51;3.90;99.90
38090;DHT22;23904;52.322;10.232;2022-12-07T02:24:48;3.90;99.90
38090;DHT22;23904;52.322;10.232;2022-12-07T02:27:36;4.00;99.90
38090;DHT22;23904;52.322;10.232;2022-12-07T02:30:19;4.00;99.90
38090;DHT22;23904;52.322;10.232;2022-12-07T02:32:56;3.90;99.90
38090;DHT22;23904;52.322;10.232;2022-12-07T02:35:39;3.90;99.90
38090;DHT22;23904;52.322;10.232;2022-12-07T02:38:22;3.90;99.90
38090;DHT22;23904;52.322;10.232;2022-12-07T02:40:59;3.90;99.90
38090;DHT22;23904;52.322;10.232;2022-12-07T02:43:34;3.90;99.90
38090;DHT22;23904;52.322;10.232;2022-12-07T02:46:15;4.00;99.90
38090;DHT22;23904;52.322;10.232;2022-12-07T02:48:43;4.00;99.90
38090;DHT22;23904;52.322;10.232;2022-12-07T02:51:11;4.00;99.90
38090;DHT22;23904;52.322;10.232;2022-12-07T02:53:39;4.00;99.90
38090;DHT22;23904;52.322;10.232;2022-12-07T03:12:46;4.10;99.90
38090;DHT22;23904;52.322;10.232;2022-12-07T03:15:54;4.20;99.90
38090;DHT22;23904;52.322;10.232;2022-12-07T03:18:38;4.10;99.90
38090;DHT22;23904;52.322;10.232;2022-12-07T03:21:11;4.10;99.90
38090;DHT22;23904;52.322;10.232;2022-12-07T03:23:41;4.20;99.90
38090;DHT22;23904;52.322;10.232;2022-12-07T03:26:10;4.10;99.90
38090;DHT22;23904;52.322;10.232;2022-12-07T03:28:41;4.20;99.90
38090;DHT22;23904;52.322;10.232;2022-12-07T03:31:18;4.20;99.90
38090;DHT22;23904;52.322;10.232;2022-12-07T03:34:06;4.20;99.90
38090;DHT22;23904;52.322;10.232;2022-12-07T03:39:30;4.20;99.90
38090;DHT22;23904;52.322;10.232;2022-12-07T03:42:07;4.10;99.90
38090;DHT22;23904;52.322;10.232;2022-12-07T03:44:35;4.10;99.90
38090;DHT22;23904;52.322;10.232;2022-12-07T03:47:31;4.00;99.90
38090;DHT22;23904;52.322;10.232;2022-12-07T03:52:59;4.00;99.90
38090;DHT22;23904;52.322;10.232;2022-12-07T03:55:35;3.90;99.90
38090;DHT22;23904;52.322;10.232;2022-12-07T03:58:09;3.90;99.90
38090;DHT22;23904;52.322;10.232;2022-12-07T04:00:46;4.00;99.90
38090;DHT22;23904;52.322;10.232;2022-12-07T04:03:12;4.00;99.90
38090;DHT22;23904;52.322;10.232;2022-12-07T04:05:38;4.00;99.90
38090;DHT22;23904;52.322;10.232;2022-12-07T04:08:04;4.00;99.90
38090;DHT22;23904;52.322;10.232;2022-12-07T04:10:30;4.10;99.90
38090;DHT22;23904;52.322;10.232;2022-12-07T04:12:56;4.10;99.90
38090;DHT22;23904;52.322;10.232;2022-12-07T04:15:22;4.10;99.90
38090;DHT22;23904;52.322;10.232;2022-12-07T04:17:48;4.10;99.90
38090;DHT22;23904;52.322;10.232;2022-12-07T04:20:14;4.10;99.90
38090;DHT22;23904;52.322;10.232;2022-12-07T04:22:40;4.10;99.90
38090;DHT22;23904;52.322;10.232;2022-12-07T04:25:06;4.20;99.90
38090;DHT22;23904;52.322;10.232;2022-12-07T04:27:31;4.20;99.90
38090;DHT22;23904;52.322;10.232;2022-12-07T04:29:57;4.10;99.90
38090;DHT22;23904;52.322;10.232;2022-12-07T04:32:23;4.10;99.90
38090;DHT22;23904;52.322;10.232;2022-12-07T04:34:49;4.10;99.90
38090;DHT22;23904;52.322;10.232;2022-12-07T04:37:15;4.10;99.90
38090;DHT22;23904;52.322;10.232;2022-12-07T04:39:42;4.00;99.90
38090;DHT22;23904;52.322;10.232;2022-12-07T04:42:10;4.00;99.90
38090;DHT22;23904;52.322;10.232;2022-12-07T04:44:36;3.90;99.90
38090;DHT22;23904;52.322;10.232;2022-12-07T04:47:02;3.90;99.90
38090;DHT22;23904;52.322;10.232;2022-12-07T04:49:28;3.90;99.90
38090;DHT22;23904;52.322;10.232;2022-12-07T04:51:54;3.90;99.90
38090;DHT22;23904;52.322;10.232;2022-12-07T04:54:19;3.90;99.90
38090;DHT22;23904;52.322;10.232;2022-12-07T04:56:45;3.90;99.90
38090;DHT22;23904;52.322;10.232;2022-12-07T04:59:12;3.90;99.90
38090;DHT22;23904;52.322;10.232;2022-12-07T05:01:39;3.80;99.90
38090;DHT22;23904;52.322;10.232;2022-12-07T05:04:05;3.80;99.90
38090;DHT22;23904;52.322;10.232;2022-12-07T05:06:31;3.80;99.90
38090;DHT22;23904;52.322;10.232;2022-12-07T05:08:56;3.80;99.90
38090;DHT22;23904;52.322;10.232;2022-12-07T05:11:22;3.80;99.90
38090;DHT22;23904;52.322;10.232;2022-12-07T05:14:06;3.80;99.90
38090;DHT22;23904;52.322;10.232;2022-12-07T05:16:38;3.80;99.90
38090;DHT22;23904;52.322;10.232;2022-12-07T05:19:05;3.80;99.90
38090;DHT22;23904;52.322;10.232;2022-12-07T05:21:30;3.80;99.90
38090;DHT22;23904;52.322;10.232;2022-12-07T05:23:56;3.90;99.90
38090;DHT22;23904;52.322;10.232;2022-12-07T05:26:22;3.90;99.90
38090;DHT22;23904;52.322;10.232;2022-12-07T05:28:55;3.90;99.90
38090;DHT22;23904;52.322;10.232;2022-12-07T05:31:21;3.90;99.90
38090;DHT22;23904;52.322;10.232;2022-12-07T05:33:48;3.90;99.90
38090;DHT22;23904;52.322;10.232;2022-12-07T05:36:13;3.90;99.90
38090;DHT22;23904;52.322;10.232;2022-12-07T05:38:41;3.90;99.90
38090;DHT22;23904;52.322;10.232;2022-12-07T05:41:07;3.90;99.90
38090;DHT22;23904;52.322;10.232;2022-12-07T05:43:53;3.90;99.90
38090;DHT22;23904;52.322;10.232;2022-12-07T05:46:19;3.90;99.90
38090;DHT22;23904;52.322;10.232;2022-12-07T05:48:45;3.90;99.90
38090;DHT22;23904;52.322;10.232;2022-12-07T05:51:10;4.00;99.90
38090;DHT22;23904;52.322;10.232;2022-12-07T05:53:36;4.00;99.90
38090;DHT22;23904;52.322;10.232;2022-12-07T05:56:02;4.00;99.90
38090;DHT22;23904;52.322;10.232;2022-12-07T05:58:28;4.00;99.90
38090;DHT22;23904;52.322;10.232;2022-12-07T06:01:11;4.00;99.90
38090;DHT22;23904;52.322;10.232;2022-12-07T06:03:37;4.00;99.90
38090;DHT22;23904;52.322;10.232;2022-12-07T06:06:03;4.00;99.90
38090;DHT22;23904;52.322;10.232;2022-12-07T06:08:29;4.00;99.90
38090;DHT22;23904;52.322;10.232;2022-12-07T06:10:55;4.00;99.90
38090;DHT22;23904;52.322;10.232;2022-12-07T06:13:40;4.00;99.90
38090;DHT22;23904;52.322;10.232;2022-12-07T06:16:06;4.00;99.90
38090;DHT22;23904;52.322;10.232;2022-12-07T06:18:32;4.00;99.90
38090;DHT22;23904;52.322;10.232;2022-12-07T06:20:58;4.00;99.90
38090;DHT22;23904;52.322;10.232;2022-12-07T06:23:24;4.00;99.90
38090;DHT22;23904;52.322;10.232;2022-12-07T06:25:49;4.00;99.90
38090;DHT22;23904;52.322;10.232;2022-12-07T06:28:15;4.00;99.90
38090;DHT22;23904;52.322;10.232;2022-12-07T06:30:41;4.00;99.90
38090;DHT22;23904;52.322;10.232;2022-12-07T06:33:06;3.90;99.90
38090;DHT22;23904;52.322;10.232;2022-12-07T06:35:33;3.90;99.90
38090;DHT22;23904;52.322;10.232;2022-12-07T06:37:58;3.90;99.90
38090;DHT22;23904;52.322;10.232;2022-12-07T06:40:24;3.90;99.90
38090;DHT22;23904;52.322;10.232;2022-12-07T06:42:50;3.80;99.90
38090;DHT22;23904;52.322;10.232;2022-12-07T06:45:15;3.90;99.90
38090;DHT22;23904;52.322;10.232;2022-12-07T06:47:41;3.90;99.90
38090;DHT22;23904;52.322;10.232;2022-12-07T06:50:07;3.90;99.90
38090;DHT22;23904;52.322;10.232;2022-12-07T06:52:33;3.80;99.90
38090;DHT22;23904;52.322;10.232;2022-12-07T06:54:59;3.80;99.90
38090;DHT22;23904;52.322;10.232;2022-12-07T06:57:25;3.80;99.90
38090;DHT22;23904;52.322;10.232;2022-12-07T06:59:51;3.80;99.90
38090;DHT22;23904;52.322;10.232;2022-12-07T07:02:17;3.80;99.90
38090;DHT22;23904;52.322;10.232;2022-12-07T07:04:43;3.80;99.90
38090;DHT22;23904;52.322;10.232;2022-12-07T07:07:09;3.80;99.90
38090;DHT22;23904;52.322;10.232;2022-12-07T07:09:34;3.80;99.90
38090;DHT22;23904;52.322;10.232;2022-12-07T07:12:00;3.80;99.90
38090;DHT22;23904;52.322;10.232;2022-12-07T07:14:26;3.80;99.90
38090;DHT22;23904;52.322;10.232;2022-12-07T07:16:51;3.70;99.90
38090;DHT22;23904;52.322;10.232;2022-12-07T07:19:17;3.80;99.90
38090;DHT22;23904;52.322;10.232;2022-12-07T07:21:43;3.80;99.90
38090;DHT22;23904;52.322;10.232;2022-12-07T07:24:08;3.80;99.90
38090;DHT22;23904;52.322;10.232;2022-12-07T07:26:34;3.80;99.90
38090;DHT22;23904;52.322;10.232;2022-12-07T07:29:00;3.80;99.90
38090;DHT22;23904;52.322;10.232;2022-12-07T07:31:25;3.80;99.90
38090;DHT22;23904;52.322;10.232;2022-12-07T07:33:51;3.80;99.90
38090;DHT22;23904;52.322;10.232;2022-12-07T07:36:16;3.80;99.90
38090;DHT22;23904;52.322;10.232;2022-12-07T07:38:42;3.80;99.90
38090;DHT22;23904;52.322;10.232;2022-12-07T07:41:08;3.80;99.90
38090;DHT22;23904;52.322;10.232;2022-12-07T07:43:33;3.90;99.90
38090;DHT22;23904;52.322;10.232;2022-12-07T07:45:59;3.80;99.90
38090;DHT22;23904;52.322;10.232;2022-12-07T07:48:24;3.80;99.90
38090;DHT22;23904;52.322;10.232;2022-12-07T07:50:51;3.90;99.90
38090;DHT22;23904;52.322;10.232;2022-12-07T07:53:17;3.90;99.90
38090;DHT22;23904;52.322;10.232;2022-12-07T07:55:53;3.80;99.90
38090;DHT22;23904;52.322;10.232;2022-12-07T07:58:19;3.80;99.90
38090;DHT22;23904;52.322;10.232;2022-12-07T08:00:45;3.90;99.90
38090;DHT22;23904;52.322;10.232;2022-12-07T08:03:11;3.90;99.90
38090;DHT22;23904;52.322;10.232;2022-12-07T08:05:37;3.90;99.90
38090;DHT22;23904;52.322;10.232;2022-12-07T08:08:03;3.90;99.90
38090;DHT22;23904;52.322;10.232;2022-12-07T08:10:30;3.90;99.90
38090;DHT22;23904;52.322;10.232;2022-12-07T08:12:57;3.90;99.90
38090;DHT22;23904;52.322;10.232;2022-12-07T08:15:46;3.90;99.90
38090;DHT22;23904;52.322;10.232;2022-12-07T08:18:13;3.90;99.90
38090;DHT22;23904;52.322;10.232;2022-12-07T08:20:41;3.80;99.90
38090;DHT22;23904;52.322;10.232;2022-12-07T08:23:08;3.80;99.90
38090;DHT22;23904;52.322;10.232;2022-12-07T08:25:34;3.90;99.90
38090;DHT22;23904;52.322;10.232;2022-12-07T08:28:00;3.90;99.90
38090;DHT22;23904;52.322;10.232;2022-12-07T08:30:27;3.90;99.90
38090;DHT22;23904;52.322;10.232;2022-12-07T08:32:53;3.90;99.90
38090;DHT22;23904;52.322;10.232;2022-12-07T08:35:19;3.90;99.90
38090;DHT22;23904;52.322;10.232;2022-12-07T08:37:45;3.90;99.90
38090;DHT22;23904;52.322;10.232;2022-12-07T08:40:12;4.00;99.90
38090;DHT22;23904;52.322;10.232;2022-12-07T08:42:51;4.00;99.90
38090;DHT22;23904;52.322;10.232;2022-12-07T08:45:17;4.00;99.90
38090;DHT22;23904;52.322;10.232;2022-12-07T08:48:00;4.00;99.90
38090;DHT22;23904;52.322;10.232;2022-12-07T08:50:29;4.00;99.90
38090;DHT22;23904;52.322;10.232;2022-12-07T08:52:56;3.90;99.90
38090;DHT22;23904;52.322;10.232;2022-12-07T08:55:23;3.90;99.90
38090;DHT22;23904;52.322;10.232;2022-12-07T08:57:49;3.90;99.90
38090;DHT22;23904;52.322;10.232;2022-12-07T09:00:15;3.90;99.90
38090;DHT22;23904;52.322;10.232;2022-12-07T09:02:45;3.90;99.90
38090;DHT22;23904;52.322;10.232;2022-12-07T09:05:12;3.90;99.90
38090;DHT22;23904;52.322;10.232;2022-12-07T09:07:41;3.90;99.90
38090;DHT22;23904;52.322;10.232;2022-12-07T09:10:09;3.90;99.90
38090;DHT22;23904;52.322;10.232;2022-12-07T09:12:35;3.90;99.90
38090;DHT22;23904;52.322;10.232;2022-12-07T09:15:00;3.90;99.90
38090;DHT22;23904;52.322;10.232;2022-12-07T09:17:26;4.00;99.90
38090;DHT22;23904;52.322;10.232;2022-12-07T09:19:52;4.00;99.90
38090;DHT22;23904;52.322;10.232;2022-12-07T09:22:17;4.10;99.90
38090;DHT22;23904;52.322;10.232;2022-12-07T09:24:43;4.10;99.90
38090;DHT22;23904;52.322;10.232;2022-12-07T09:27:11;4.00;99.90
38090;DHT22;23904;52.322;10.232;2022-12-07T09:29:37;4.10;99.90
38090;DHT22;23904;52.322;10.232;2022-12-07T09:32:03;4.10;99.90
38090;DHT22;23904;52.322;10.232;2022-12-07T09:34:31;4.20;99.90
38090;DHT22;23904;52.322;10.232;2022-12-07T09:36:57;4.20;99.90
38090;DHT22;23904;52.322;10.232;2022-12-07T09:39:23;4.20;99.90
38090;DHT22;23904;52.322;10.232;2022-12-07T09:41:49;4.20;99.90
38090;DHT22;23904;52.322;10.232;2022-12-07T09:44:20;4.20;99.90
38090;DHT22;23904;52.322;10.232;2022-12-07T09:46:48;4.20;99.90
38090;DHT22;23904;52.322;10.232;2022-12-07T09:49:19;4.20;99.90
38090;DHT22;23904;52.322;10.232;2022-12-07T09:51:47;4.20;99.90
38090;DHT22;23904;52.322;10.232;2022-12-07T09:54:16;4.20;99.90
38090;DHT22;23904;52.322;10.232;2022-12-07T09:56:43;4.20;99.90
38090;DHT22;23904;52.322;10.232;2022-12-07T09:59:15;4.20;99.90
38090;DHT22;23904;52.322;10.232;2022-12-07T10:01:47;4.20;99.90
38090;DHT22;23904;52.322;10.232;2022-12-07T10:04:18;4.30;99.90
38090;DHT22;23904;52.322;10.232;2022-12-07T10:06:47;4.30;99.90
38090;DHT22;23904;52.322;10.232;2022-12-07T10:09:16;4.30;99.90
38090;DHT22;23904;52.322;10.232;2022-12-07T10:12:09;4.30;99.90
38090;DHT22;23904;52.322;10.232;2022-12-07T10:14:39;4.30;99.90
38090;DHT22;23904;52.322;10.232;2022-12-07T10:17:36;4.30;99.90
38090;DHT22;23904;52.322;10.232;2022-12-07T10:20:17;4.40;99.90
38090;DHT22;23904;52.322;10.232;2022-12-07T10:25:33;4.60;99.90
38090;DHT22;23904;52.322;10.232;2022-12-07T10:28:15;4.60;99.90
38090;DHT22;23904;52.322;10.232;2022-12-07T10:33:28;4.60;99.90
38090;DHT22;23904;52.322;10.232;2022-12-07T10:35:55;4.70;99.90
38090;DHT22;23904;52.322;10.232;2022-12-07T10:38:22;4.70;99.90
38090;DHT22;23904;52.322;10.232;2022-12-07T10:41:07;4.70;99.90
38090;DHT22;23904;52.322;10.232;2022-12-07T10:43:33;4.70;99.90
38090;DHT22;23904;52.322;10.232;2022-12-07T10:49:01;4.80;99.90
38090;DHT22;23904;52.322;10.232;2022-12-07T10:52:06;4.80;99.90
38090;DHT22;23904;52.322;10.232;2022-12-07T11:00:21;4.90;99.90
38090;DHT22;23904;52.322;10.232;2022-12-07T11:05:39;5.10;99.90
38090;DHT22;23904;52.322;10.232;2022-12-07T11:14:35;5.00;99.90
38090;DHT22;23904;52.322;10.232;2022-12-07T11:23:11;4.90;99.90
38090;DHT22;23904;52.322;10.232;2022-12-07T11:25:53;5.00;99.90
38090;DHT22;23904;52.322;10.232;2022-12-07T11:30:57;4.90;99.90
38090;DHT22;23904;52.322;10.232;2022-12-07T11:33:47;4.90;99.90
38090;DHT22;23904;52.322;10.232;2022-12-07T11:36:33;4.90;99.90
38090;DHT22;23904;52.322;10.232;2022-12-07T11:39:09;4.90;99.90
38090;DHT22;23904;52.322;10.232;2022-12-07T11:41:54;4.80;99.90
38090;DHT22;23904;52.322;10.232;2022-12-07T11:55:16;4.90;99.90
38090;DHT22;23904;52.322;10.232;2022-12-07T11:57:52;4.90;99.90
38090;DHT22;23904;52.322;10.232;2022-12-07T12:00:23;4.90;99.90
38090;DHT22;23904;52.322;10.232;2022-12-07T12:03:11;4.80;99.90
38090;DHT22;23904;52.322;10.232;2022-12-07T12:05:45;4.70;99.90
38090;DHT22;23904;52.322;10.232;2022-12-07T12:08:27;4.70;99.90
38090;DHT22;23904;52.322;10.232;2022-12-07T12:20:16;4.70;99.90
38090;DHT22;23904;52.322;10.232;2022-12-07T12:25:29;4.70;99.90
38090;DHT22;23904;52.322;10.232;2022-12-07T12:28:02;4.80;99.90
38090;DHT22;23904;52.322;10.232;2022-12-07T12:30:39;4.70;99.90
38090;DHT22;23904;52.322;10.232;2022-12-07T12:33:28;4.70;99.90
38090;DHT22;23904;52.322;10.232;2022-12-07T12:36:28;5.00;99.90
38090;DHT22;23904;52.322;10.232;2022-12-07T12:39:18;5.30;99.90
38090;DHT22;23904;52.322;10.232;2022-12-07T12:54:21;5.50;99.90
38090;DHT22;23904;52.322;10.232;2022-12-07T12:56:55;5.40;99.90
38090;DHT22;23904;52.322;10.232;2022-12-07T13:02:47;5.00;99.90
38090;DHT22;23904;52.322;10.232;2022-12-07T13:05:22;4.90;99.90
38090;DHT22;23904;52.322;10.232;2022-12-07T13:07:51;4.80;99.90
38090;DHT22;23904;52.322;10.232;2022-12-07T13:15:50;4.70;99.90
38090;DHT22;23904;52.322;10.232;2022-12-07T13:23:54;4.80;99.90
38090;DHT22;23904;52.322;10.232;2022-12-07T13:26:26;4.80;99.90
38090;DHT22;23904;52.322;10.232;2022-12-07T13:37:45;4.80;99.90
38090;DHT22;23904;52.322;10.232;2022-12-07T13:39:59;4.80;99.90
38090;DHT22;23904;52.322;10.232;2022-12-07T13:44:55;4.70;99.90
38090;DHT22;23904;52.322;10.232;2022-12-07T13:50:28;4.70;99.90
38090;DHT22;23904;52.322;10.232;2022-12-07T13:52:59;4.70;99.90
38090;DHT22;23904;52.322;10.232;2022-12-07T13:55:26;4.70;99.90
38090;DHT22;23904;52.322;10.232;2022-12-07T13:57:54;4.70;99.90
38090;DHT22;23904;52.322;10.232;2022-12-07T14:00:22;4.70;99.90
38090;DHT22;23904;52.322;10.232;2022-12-07T14:05:37;4.70;99.90
38090;DHT22;23904;52.322;10.232;2022-12-07T14:08:20;4.70;99.90
38090;DHT22;23904;52.322;10.232;2022-12-07T14:13:38;4.60;99.90
38090;DHT22;23904;52.322;10.232;2022-12-07T14:18:54;4.60;99.90
38090;DHT22;23904;52.322;10.232;2022-12-07T14:21:26;4.70;99.90
38090;DHT22;23904;52.322;10.232;2022-12-07T14:24:21;4.60;99.90
38090;DHT22;23904;52.322;10.232;2022-12-07T14:26:49;4.70;99.90
38090;DHT22;23904;52.322;10.232;2022-12-07T14:31:48;4.60;99.90
38090;DHT22;23904;52.322;10.232;2022-12-07T14:34:14;4.70;99.90
38090;DHT22;23904;52.322;10.232;2022-12-07T14:36:39;4.60;99.90
38090;DHT22;23904;52.322;10.232;2022-12-07T14:39:05;4.50;99.90
38090;DHT22;23904;52.322;10.232;2022-12-07T14:41:31;4.60;99.90
38090;DHT22;23904;52.322;10.232;2022-12-07T14:44:15;4.60;99.90
38090;DHT22;23904;52.322;10.232;2022-12-07T14:46:41;4.50;99.90
38090;DHT22;23904;52.322;10.232;2022-12-07T14:49:07;4.50;99.90
38090;DHT22;23904;52.322;10.232;2022-12-07T14:51:33;4.60;99.90
38090;DHT22;23904;52.322;10.232;2022-12-07T14:54:01;4.50;99.90
38090;DHT22;23904;52.322;10.232;2022-12-07T14:56:29;4.50;99.90
38090;DHT22;23904;52.322;10.232;2022-12-07T14:58:54;4.50;99.90
38090;DHT22;23904;52.322;10.232;2022-12-07T15:01:20;4.60;99.90
38090;DHT22;23904;52.322;10.232;2022-12-07T15:03:46;4.60;99.90
38090;DHT22;23904;52.322;10.232;2022-12-07T15:06:15;4.50;99.90
38090;DHT22;23904;52.322;10.232;2022-12-07T15:08:43;4.60;99.90
38090;DHT22;23904;52.322;10.232;2022-12-07T15:11:17;4.50;99.90
38090;DHT22;23904;52.322;10.232;2022-12-07T15:13:43;4.50;99.90
38090;DHT22;23904;52.322;10.232;2022-12-07T15:16:27;4.50;99.90
38090;DHT22;23904;52.322;10.232;2022-12-07T15:18:53;4.50;99.90
38090;DHT22;23904;52.322;10.232;2022-12-07T15:21:18;4.50;99.90
38090;DHT22;23904;52.322;10.232;2022-12-07T15:23:46;4.50;99.90
38090;DHT22;23904;52.322;10.232;2022-12-07T15:26:12;4.50;99.90
38090;DHT22;23904;52.322;10.232;2022-12-07T15:28:39;4.50;99.90
38090;DHT22;23904;52.322;10.232;2022-12-07T15:31:16;4.50;99.90
38090;DHT22;23904;52.322;10.232;2022-12-07T15:33:43;4.50;99.90
38090;DHT22;23904;52.322;10.232;2022-12-07T15:36:22;4.50;99.90
38090;DHT22;23904;52.322;10.232;2022-12-07T15:38:49;4.50;99.90
38090;DHT22;23904;52.322;10.232;2022-12-07T15:41:15;4.50;99.90
38090;DHT22;23904;52.322;10.232;2022-12-07T15:43:41;4.50;99.90
38090;DHT22;23904;52.322;10.232;2022-12-07T15:46:33;4.50;99.90
38090;DHT22;23904;52.322;10.232;2022-12-07T15:49:00;4.40;99.90
38090;DHT22;23904;52.322;10.232;2022-12-07T15:51:26;4.10;99.90
38090;DHT22;23904;52.322;10.232;2022-12-07T15:53:52;4.00;99.90
38090;DHT22;23904;52.322;10.232;2022-12-07T15:56:18;3.80;99.90
38090;DHT22;23904;52.322;10.232;2022-12-07T15:58:44;3.70;99.90
38090;DHT22;23904;52.322;10.232;2022-12-07T16:01:15;3.60;99.90
38090;DHT22;23904;52.322;10.232;2022-12-07T16:03:43;3.50;99.90
38090;DHT22;23904;52.322;10.232;2022-12-07T16:06:09;3.40;99.90
38090;DHT22;23904;52.322;10.232;2022-12-07T16:08:35;3.30;99.90
38090;DHT22;23904;52.322;10.232;2022-12-07T16:11:05;3.20;99.90
38090;DHT22;23904;52.322;10.232;2022-12-07T16:13:32;3.10;99.90
38090;DHT22;23904;52.322;10.232;2022-12-07T16:16:10;2.90;99.90
38090;DHT22;23904;52.322;10.232;2022-12-07T16:18:37;2.90;99.90
38090;DHT22;23904;52.322;10.232;2022-12-07T16:21:03;2.80;99.90
38090;DHT22;23904;52.322;10.232;2022-12-07T16:23:30;2.70;99.90
38090;DHT22;23904;52.322;10.232;2022-12-07T16:26:16;2.70;99.90
38090;DHT22;23904;52.322;10.232;2022-12-07T16:28:44;2.70;99.90
38090;DHT22;23904;52.322;10.232;2022-12-07T16:31:13;2.70;99.90
38090;DHT22;23904;52.322;10.232;2022-12-07T16:33:42;2.70;99.90
38090;DHT22;23904;52.322;10.232;2022-12-07T16:36:09;2.70;99.90
38090;DHT22;23904;52.322;10.232;2022-12-07T16:38:36;2.80;99.90
38090;DHT22;23904;52.322;10.232;2022-12-07T16:41:04;2.80;99.90
38090;DHT22;23904;52.322;10.232;2022-12-07T16:43:31;2.80;99.90
38090;DHT22;23904;52.322;10.232;2022-12-07T16:45:56;2.80;99.90
38090;DHT22;23904;52.322;10.232;2022-12-07T16:48:22;2.80;99.90
38090;DHT22;23904;52.322;10.232;2022-12-07T16:50:48;2.80;99.90
38090;DHT22;23904;52.322;10.232;2022-12-07T16:53:14;2.90;99.90
38090;DHT22;23904;52.322;10.232;2022-12-07T16:55:43;2.90;99.90
38090;DHT22;23904;52.322;10.232;2022-12-07T16:58:11;2.80;99.90
38090;DHT22;23904;52.322;10.232;2022-12-07T17:00:40;2.80;99.90
38090;DHT22;23904;52.322;10.232;2022-12-07T17:03:06;2.70;99.90
38090;DHT22;23904;52.322;10.232;2022-12-07T17:05:32;2.60;99.90
38090;DHT22;23904;52.322;10.232;2022-12-07T17:07:58;2.70;99.90
38090;DHT22;23904;52.322;10.232;2022-12-07T17:10:25;2.70;99.90
38090;DHT22;23904;52.322;10.232;2022-12-07T17:12:51;2.70;99.90
38090;DHT22;23904;52.322;10.232;2022-12-07T17:15:17;2.60;99.90
38090;DHT22;23904;52.322;10.232;2022-12-07T17:17:54;2.60;99.90
38090;DHT22;23904;52.322;10.232;2022-12-07T17:20:23;2.60;99.90
38090;DHT22;23904;52.322;10.232;2022-12-07T17:22:52;2.70;99.90
38090;DHT22;23904;52.322;10.232;2022-12-07T17:25:18;2.70;99.90
38090;DHT22;23904;52.322;10.232;2022-12-07T17:27:44;2.70;99.90
38090;DHT22;23904;52.322;10.232;2022-12-07T17:30:12;2.80;99.90
38090;DHT22;23904;52.322;10.232;2022-12-07T17:32:38;2.80;99.90
38090;DHT22;23904;52.322;10.232;2022-12-07T17:35:05;2.80;99.90
38090;DHT22;23904;52.322;10.232;2022-12-07T17:37:32;2.80;99.90
38090;DHT22;23904;52.322;10.232;2022-12-07T17:39:58;2.90;99.90
38090;DHT22;23904;52.322;10.232;2022-12-07T17:42:25;2.90;99.90
38090;DHT22;23904;52.322;10.232;2022-12-07T17:45:08;2.90;99.90
38090;DHT22;23904;52.322;10.232;2022-12-07T17:47:36;3.00;99.90
38090;DHT22;23904;52.322;10.232;2022-12-07T17:50:05;3.00;99.90
38090;DHT22;23904;52.322;10.232;2022-12-07T17:52:32;3.10;99.90
38090;DHT22;23904;52.322;10.232;2022-12-07T17:55:16;2.90;99.90
38090;DHT22;23904;52.322;10.232;2022-12-07T17:57:42;2.80;99.90
38090;DHT22;23904;52.322;10.232;2022-12-07T18:00:09;2.70;99.90
38090;DHT22;23904;52.322;10.232;2022-12-07T18:02:36;2.70;99.90
38090;DHT22;23904;52.322;10.232;2022-12-07T18:05:02;2.70;99.90